sensor_id;sensor_type;location;lat;lon;timestamp;temperature;humidity
1155;DHT22;566;48.414;9.118;2022-11-27T00:01:55;0.50;67.60
1155;DHT22;566;48.414;9.118;2022-11-27T00:04:20;0.60;67.40
1155;DHT22;566;48.414;9.118;2022-11-27T00:06:46;0.70;66.70
1155;DHT22;566;48.414;9.118;2022-11-27T00:09:14;0.80;67.30
1155;DHT22;566;48.414;9.118;2022-11-27T00:11:40;0.70;68.10
1155;DHT22;566;48.414;9.118;2022-11-27T00:14:08;0.60;68.40
1155;DHT22;566;48.414;9.118;2022-11-27T00:16:35;0.60;68.00
1155;DHT22;566;48.414;9.118;2022-11-27T00:19:01;0.60;68.20
1155;DHT22;566;48.414;9.118;2022-11-27T00:21:28;0.50;68.70
1155;DHT22;566;48.414;9.118;2022-11-27T00:23:56;0.30;69.40
1155;DHT22;566;48.414;9.118;2022-11-27T00:26:22;0.40;67.70
1155;DHT22;566;48.414;9.118;2022-11-27T00:28:48;0.60;67.00
1155;DHT22;566;48.414;9.118;2022-11-27T00:31:20;0.60;67.60
1155;DHT22;566;48.414;9.118;2022-11-27T00:33:46;0.60;68.40
1155;DHT22;566;48.414;9.118;2022-11-27T00:36:13;0.50;68.70
1155;DHT22;566;48.414;9.118;2022-11-27T00:38:39;0.20;71.40
1155;DHT22;566;48.414;9.118;2022-11-27T00:41:10;0.00;70.80
1155;DHT22;566;48.414;9.118;2022-11-27T00:43:36;0.00;69.30
1155;DHT22;566;48.414;9.118;2022-11-27T00:46:02;0.10;69.10
1155;DHT22;566;48.414;9.118;2022-11-27T00:48:28;0.80;66.10
1155;DHT22;566;48.414;9.118;2022-11-27T00:51:05;1.40;66.30
1155;DHT22;566;48.414;9.118;2022-11-27T00:53:32;1.70;66.50
1155;DHT22;566;48.414;9.118;2022-11-27T00:55:58;2.00;67.00
1155;DHT22;566;48.414;9.118;2022-11-27T00:58:24;2.20;67.90
1155;DHT22;566;48.414;9.118;2022-11-27T01:00:55;2.30;69.90
1155;DHT22;566;48.414;9.118;2022-11-27T01:03:22;2.60;72.60
1155;DHT22;566;48.414;9.118;2022-11-27T01:05:47;2.60;78.70
1155;DHT22;566;48.414;9.118;2022-11-27T01:08:13;2.70;81.90
1155;DHT22;566;48.414;9.118;2022-11-27T01:10:38;2.70;84.80
1155;DHT22;566;48.414;9.118;2022-11-27T01:13:04;2.80;85.90
1155;DHT22;566;48.414;9.118;2022-11-27T01:15:30;2.70;86.80
1155;DHT22;566;48.414;9.118;2022-11-27T01:17:58;2.80;87.30
1155;DHT22;566;48.414;9.118;2022-11-27T01:20:24;2.80;88.30
1155;DHT22;566;48.414;9.118;2022-11-27T01:22:49;2.90;89.30
1155;DHT22;566;48.414;9.118;2022-11-27T01:25:15;2.90;90.70
1155;DHT22;566;48.414;9.118;2022-11-27T01:27:40;2.90;91.60
1155;DHT22;566;48.414;9.118;2022-11-27T01:30:06;2.90;92.20
1155;DHT22;566;48.414;9.118;2022-11-27T01:32:32;2.90;92.00
1155;DHT22;566;48.414;9.118;2022-11-27T01:34:58;2.90;92.50
1155;DHT22;566;48.414;9.118;2022-11-27T01:37:23;2.80;93.00
1155;DHT22;566;48.414;9.118;2022-11-27T01:39:49;2.80;93.00
1155;DHT22;566;48.414;9.118;2022-11-27T01:42:14;2.80;92.80
1155;DHT22;566;48.414;9.118;2022-11-27T01:44:49;2.80;93.50
1155;DHT22;566;48.414;9.118;2022-11-27T01:47:28;2.90;93.90
1155;DHT22;566;48.414;9.118;2022-11-27T01:50:02;3.00;94.60
1155;DHT22;566;48.414;9.118;2022-11-27T01:52:33;2.90;94.90
1155;DHT22;566;48.414;9.118;2022-11-27T01:55:27;2.90;94.20
1155;DHT22;566;48.414;9.118;2022-11-27T01:58:05;2.90;94.70
1155;DHT22;566;48.414;9.118;2022-11-27T02:00:31;2.90;95.00
1155;DHT22;566;48.414;9.118;2022-11-27T02:02:57;2.90;94.90
1155;DHT22;566;48.414;9.118;2022-11-27T02:05:24;2.90;95.30
1155;DHT22;566;48.414;9.118;2022-11-27T02:07:51;2.90;95.80
1155;DHT22;566;48.414;9.118;2022-11-27T02:10:18;2.90;96.20
1155;DHT22;566;48.414;9.118;2022-11-27T02:13:41;2.90;96.90
1155;DHT22;566;48.414;9.118;2022-11-27T02:23:40;3.10;98.00
1155;DHT22;566;48.414;9.118;2022-11-27T02:31:46;3.20;98.00
1155;DHT22;566;48.414;9.118;2022-11-27T02:35:05;3.10;98.00
1155;DHT22;566;48.414;9.118;2022-11-27T02:40:08;3.10;98.00
1155;DHT22;566;48.414;9.118;2022-11-27T02:42:43;3.20;98.00
1155;DHT22;566;48.414;9.118;2022-11-27T02:45:12;3.20;98.00
1155;DHT22;566;48.414;9.118;2022-11-27T02:47:40;3.10;98.00
1155;DHT22;566;48.414;9.118;2022-11-27T02:50:18;3.00;98.00
1155;DHT22;566;48.414;9.118;2022-11-27T02:52:44;3.00;98.00
1155;DHT22;566;48.414;9.118;2022-11-27T02:55:15;2.90;98.00
1155;DHT22;566;48.414;9.118;2022-11-27T02:57:42;2.90;98.00
1155;DHT22;566;48.414;9.118;2022-11-27T03:00:09;2.90;98.00
1155;DHT22;566;48.414;9.118;2022-11-27T03:02:40;2.80;98.00
1155;DHT22;566;48.414;9.118;2022-11-27T03:05:11;2.70;98.00
1155;DHT22;566;48.414;9.118;2022-11-27T03:08:03;2.60;98.00
1155;DHT22;566;48.414;9.118;2022-11-27T03:10:39;2.50;98.00
1155;DHT22;566;48.414;9.118;2022-11-27T03:13:08;2.20;98.00
1155;DHT22;566;48.414;9.118;2022-11-27T03:16:11;1.80;98.00
1155;DHT22;566;48.414;9.118;2022-11-27T03:21:40;1.20;95.40
1155;DHT22;566;48.414;9.118;2022-11-27T03:24:07;1.00;94.10
1155;DHT22;566;48.414;9.118;2022-11-27T03:26:33;0.90;92.60
1155;DHT22;566;48.414;9.118;2022-11-27T03:29:02;0.80;92.30
1155;DHT22;566;48.414;9.118;2022-11-27T03:31:28;0.80;90.80
1155;DHT22;566;48.414;9.118;2022-11-27T03:33:54;0.80;89.50
1155;DHT22;566;48.414;9.118;2022-11-27T03:36:20;0.80;89.90
1155;DHT22;566;48.414;9.118;2022-11-27T03:38:48;0.70;90.40
1155;DHT22;566;48.414;9.118;2022-11-27T03:52:38;1.10;88.90
1155;DHT22;566;48.414;9.118;2022-11-27T03:58:04;0.80;90.30
1155;DHT22;566;48.414;9.118;2022-11-27T04:00:35;0.70;90.90
1155;DHT22;566;48.414;9.118;2022-11-27T04:03:02;0.50;90.20
1155;DHT22;566;48.414;9.118;2022-11-27T04:05:34;0.40;87.80
1155;DHT22;566;48.414;9.118;2022-11-27T04:07:59;0.40;89.00
1155;DHT22;566;48.414;9.118;2022-11-27T04:10:25;0.30;88.50
1155;DHT22;566;48.414;9.118;2022-11-27T04:12:50;0.10;88.20
1155;DHT22;566;48.414;9.118;2022-11-27T04:15:16;0.00;87.40
1155;DHT22;566;48.414;9.118;2022-11-27T04:17:41;0.00;86.70
1155;DHT22;566;48.414;9.118;2022-11-27T04:20:07;0.00;85.60
1155;DHT22;566;48.414;9.118;2022-11-27T04:22:33;0.00;86.00
1155;DHT22;566;48.414;9.118;2022-11-27T04:24:58;0.00;86.30
1155;DHT22;566;48.414;9.118;2022-11-27T04:27:24;-0.10;85.70
1155;DHT22;566;48.414;9.118;2022-11-27T04:29:50;-0.20;85.40
1155;DHT22;566;48.414;9.118;2022-11-27T04:32:15;0.00;83.40
1155;DHT22;566;48.414;9.118;2022-11-27T04:34:41;0.00;84.50
1155;DHT22;566;48.414;9.118;2022-11-27T04:37:10;0.00;84.30
1155;DHT22;566;48.414;9.118;2022-11-27T04:39:35;0.00;82.00
1155;DHT22;566;48.414;9.118;2022-11-27T04:42:01;0.10;84.30
1155;DHT22;566;48.414;9.118;2022-11-27T04:44:27;0.00;83.90
1155;DHT22;566;48.414;9.118;2022-11-27T04:46:52;0.10;84.00
1155;DHT22;566;48.414;9.118;2022-11-27T04:49:18;0.00;86.10
1155;DHT22;566;48.414;9.118;2022-11-27T04:51:43;0.00;85.50
1155;DHT22;566;48.414;9.118;2022-11-27T04:54:10;0.00;85.30
1155;DHT22;566;48.414;9.118;2022-11-27T04:56:36;-0.10;87.10
1155;DHT22;566;48.414;9.118;2022-11-27T04:59:01;-0.30;86.70
1155;DHT22;566;48.414;9.118;2022-11-27T05:01:27;-0.40;85.90
1155;DHT22;566;48.414;9.118;2022-11-27T05:03:52;-0.30;84.80
1155;DHT22;566;48.414;9.118;2022-11-27T05:06:18;0.00;81.50
1155;DHT22;566;48.414;9.118;2022-11-27T05:08:47;0.10;87.10
1155;DHT22;566;48.414;9.118;2022-11-27T05:11:14;0.00;88.10
1155;DHT22;566;48.414;9.118;2022-11-27T05:13:41;-0.10;88.60
1155;DHT22;566;48.414;9.118;2022-11-27T05:16:07;-0.10;86.00
1155;DHT22;566;48.414;9.118;2022-11-27T05:18:33;0.10;87.10
1155;DHT22;566;48.414;9.118;2022-11-27T05:21:02;0.60;85.30
1155;DHT22;566;48.414;9.118;2022-11-27T05:23:28;0.70;91.10
1155;DHT22;566;48.414;9.118;2022-11-27T05:25:54;0.70;91.20
1155;DHT22;566;48.414;9.118;2022-11-27T05:28:20;0.80;91.80
1155;DHT22;566;48.414;9.118;2022-11-27T05:30:46;1.20;93.30
1155;DHT22;566;48.414;9.118;2022-11-27T05:33:13;1.50;96.40
1155;DHT22;566;48.414;9.118;2022-11-27T05:35:39;1.70;98.00
1155;DHT22;566;48.414;9.118;2022-11-27T05:38:05;2.10;98.00
1155;DHT22;566;48.414;9.118;2022-11-27T05:40:30;2.40;98.00
1155;DHT22;566;48.414;9.118;2022-11-27T05:42:56;2.20;98.00
1155;DHT22;566;48.414;9.118;2022-11-27T05:45:22;1.90;98.00
1155;DHT22;566;48.414;9.118;2022-11-27T05:47:47;1.40;98.00
1155;DHT22;566;48.414;9.118;2022-11-27T05:50:13;1.00;98.00
1155;DHT22;566;48.414;9.118;2022-11-27T05:52:39;0.60;98.00
1155;DHT22;566;48.414;9.118;2022-11-27T05:55:05;0.20;97.80
1155;DHT22;566;48.414;9.118;2022-11-27T05:57:30;-0.10;97.10
1155;DHT22;566;48.414;9.118;2022-11-27T05:59:57;-0.30;95.60
1155;DHT22;566;48.414;9.118;2022-11-27T06:02:23;-0.40;94.20
1155;DHT22;566;48.414;9.118;2022-11-27T06:04:49;-0.60;92.90
1155;DHT22;566;48.414;9.118;2022-11-27T06:07:14;-0.70;93.10
1155;DHT22;566;48.414;9.118;2022-11-27T06:09:40;-0.90;92.20
1155;DHT22;566;48.414;9.118;2022-11-27T06:12:06;-1.00;91.20
1155;DHT22;566;48.414;9.118;2022-11-27T06:14:32;-1.10;89.70
1155;DHT22;566;48.414;9.118;2022-11-27T06:17:00;-1.20;89.00
1155;DHT22;566;48.414;9.118;2022-11-27T06:19:25;-1.30;87.00
1155;DHT22;566;48.414;9.118;2022-11-27T06:21:51;-1.40;87.20
1155;DHT22;566;48.414;9.118;2022-11-27T06:24:16;-1.50;85.90
1155;DHT22;566;48.414;9.118;2022-11-27T06:26:42;-1.50;84.80
1155;DHT22;566;48.414;9.118;2022-11-27T06:29:08;-1.50;84.30
1155;DHT22;566;48.414;9.118;2022-11-27T06:31:34;-1.50;82.70
1155;DHT22;566;48.414;9.118;2022-11-27T06:34:00;-1.40;82.70
1155;DHT22;566;48.414;9.118;2022-11-27T06:36:32;-1.40;81.60
1155;DHT22;566;48.414;9.118;2022-11-27T06:38:58;-1.50;81.10
1155;DHT22;566;48.414;9.118;2022-11-27T06:41:25;-1.40;80.40
1155;DHT22;566;48.414;9.118;2022-11-27T06:43:52;-1.40;80.60
1155;DHT22;566;48.414;9.118;2022-11-27T06:46:20;-1.40;80.60
1155;DHT22;566;48.414;9.118;2022-11-27T06:48:48;-1.30;78.40
1155;DHT22;566;48.414;9.118;2022-11-27T06:51:17;-1.20;78.20
1155;DHT22;566;48.414;9.118;2022-11-27T06:53:46;-1.20;79.10
1155;DHT22;566;48.414;9.118;2022-11-27T06:56:16;-1.20;80.00
1155;DHT22;566;48.414;9.118;2022-11-27T06:58:42;-1.10;78.80
1155;DHT22;566;48.414;9.118;2022-11-27T07:01:13;-1.20;80.20
1155;DHT22;566;48.414;9.118;2022-11-27T07:03:39;-1.30;79.80
1155;DHT22;566;48.414;9.118;2022-11-27T07:06:07;-1.30;79.00
1155;DHT22;566;48.414;9.118;2022-11-27T07:08:34;-1.30;78.80
1155;DHT22;566;48.414;9.118;2022-11-27T07:11:22;-1.10;76.90
1155;DHT22;566;48.414;9.118;2022-11-27T07:13:49;-0.90;76.60
1155;DHT22;566;48.414;9.118;2022-11-27T07:16:15;-0.80;76.70
1155;DHT22;566;48.414;9.118;2022-11-27T07:18:47;-0.70;77.00
1155;DHT22;566;48.414;9.118;2022-11-27T07:21:14;-0.40;75.60
1155;DHT22;566;48.414;9.118;2022-11-27T07:23:40;-0.30;78.00
1155;DHT22;566;48.414;9.118;2022-11-27T07:26:07;-0.20;78.30
1155;DHT22;566;48.414;9.118;2022-11-27T07:28:33;-0.10;79.80
1155;DHT22;566;48.414;9.118;2022-11-27T07:30:59;0.00;80.70
1155;DHT22;566;48.414;9.118;2022-11-27T07:33:28;0.00;80.30
1155;DHT22;566;48.414;9.118;2022-11-27T07:36:21;0.30;78.70
1155;DHT22;566;48.414;9.118;2022-11-27T07:38:47;0.70;85.30
1155;DHT22;566;48.414;9.118;2022-11-27T07:41:14;0.80;88.70
1155;DHT22;566;48.414;9.118;2022-11-27T07:43:42;0.90;88.80
1155;DHT22;566;48.414;9.118;2022-11-27T07:46:16;0.80;89.70
1155;DHT22;566;48.414;9.118;2022-11-27T07:48:43;0.90;90.10
1155;DHT22;566;48.414;9.118;2022-11-27T07:51:10;1.00;90.30
1155;DHT22;566;48.414;9.118;2022-11-27T07:53:38;1.20;91.00
1155;DHT22;566;48.414;9.118;2022-11-27T07:56:05;1.20;93.30
1155;DHT22;566;48.414;9.118;2022-11-27T07:58:31;1.50;95.40
1155;DHT22;566;48.414;9.118;2022-11-27T08:00:57;1.70;97.00
1155;DHT22;566;48.414;9.118;2022-11-27T08:03:23;1.70;98.00
1155;DHT22;566;48.414;9.118;2022-11-27T08:05:52;2.00;98.00
1155;DHT22;566;48.414;9.118;2022-11-27T08:08:17;2.30;98.00
1155;DHT22;566;48.414;9.118;2022-11-27T08:10:43;2.80;98.00
1155;DHT22;566;48.414;9.118;2022-11-27T08:13:09;3.30;98.00
1155;DHT22;566;48.414;9.118;2022-11-27T08:15:35;3.80;98.00
1155;DHT22;566;48.414;9.118;2022-11-27T08:18:01;4.40;98.00
1155;DHT22;566;48.414;9.118;2022-11-27T08:20:27;5.00;98.00
1155;DHT22;566;48.414;9.118;2022-11-27T08:22:52;6.40;98.00
1155;DHT22;566;48.414;9.118;2022-11-27T08:25:18;7.70;98.00
1155;DHT22;566;48.414;9.118;2022-11-27T08:27:44;8.20;89.40
1155;DHT22;566;48.414;9.118;2022-11-27T08:30:10;8.50;85.60
1155;DHT22;566;48.414;9.118;2022-11-27T08:32:40;8.90;82.00
1155;DHT22;566;48.414;9.118;2022-11-27T08:35:06;8.70;81.90
1155;DHT22;566;48.414;9.118;2022-11-27T08:37:32;9.20;82.10
1155;DHT22;566;48.414;9.118;2022-11-27T08:39:58;9.40;80.90
1155;DHT22;566;48.414;9.118;2022-11-27T08:42:23;9.70;79.60
1155;DHT22;566;48.414;9.118;2022-11-27T08:44:49;9.20;78.80
1155;DHT22;566;48.414;9.118;2022-11-27T08:47:14;8.60;80.20
1155;DHT22;566;48.414;9.118;2022-11-27T08:49:41;7.60;82.10
1155;DHT22;566;48.414;9.118;2022-11-27T08:52:10;6.60;84.90
1155;DHT22;566;48.414;9.118;2022-11-27T08:54:36;6.40;87.40
1155;DHT22;566;48.414;9.118;2022-11-27T08:57:02;7.60;88.10
1155;DHT22;566;48.414;9.118;2022-11-27T08:59:28;9.30;81.30
1155;DHT22;566;48.414;9.118;2022-11-27T09:01:54;10.20;75.30
1155;DHT22;566;48.414;9.118;2022-11-27T09:04:19;11.10;76.00
1155;DHT22;566;48.414;9.118;2022-11-27T09:06:45;11.40;72.60
1155;DHT22;566;48.414;9.118;2022-11-27T09:09:13;11.10;73.90
1155;DHT22;566;48.414;9.118;2022-11-27T09:11:39;10.50;74.60
1155;DHT22;566;48.414;9.118;2022-11-27T09:14:06;9.20;78.70
1155;DHT22;566;48.414;9.118;2022-11-27T09:16:33;8.20;81.90
1155;DHT22;566;48.414;9.118;2022-11-27T09:18:59;7.30;85.60
1155;DHT22;566;48.414;9.118;2022-11-27T09:21:26;7.30;86.80
1155;DHT22;566;48.414;9.118;2022-11-27T09:24:00;7.30;86.60
1155;DHT22;566;48.414;9.118;2022-11-27T09:26:27;7.10;86.30
1155;DHT22;566;48.414;9.118;2022-11-27T09:28:55;7.10;87.20
1155;DHT22;566;48.414;9.118;2022-11-27T09:31:22;6.50;88.70
1155;DHT22;566;48.414;9.118;2022-11-27T09:33:47;6.20;89.50
1155;DHT22;566;48.414;9.118;2022-11-27T09:36:16;6.20;90.90
1155;DHT22;566;48.414;9.118;2022-11-27T09:38:43;6.30;91.10
1155;DHT22;566;48.414;9.118;2022-11-27T09:44:05;7.30;90.50
1155;DHT22;566;48.414;9.118;2022-11-27T09:46:38;8.20;87.00
1155;DHT22;566;48.414;9.118;2022-11-27T09:49:12;8.50;85.50
1155;DHT22;566;48.414;9.118;2022-11-27T09:52:03;8.40;85.80
1155;DHT22;566;48.414;9.118;2022-11-27T09:54:50;8.50;84.00
1155;DHT22;566;48.414;9.118;2022-11-27T09:57:25;8.60;82.90
1155;DHT22;566;48.414;9.118;2022-11-27T09:59:52;9.10;81.10
1155;DHT22;566;48.414;9.118;2022-11-27T10:02:31;9.40;75.70
1155;DHT22;566;48.414;9.118;2022-11-27T10:04:57;9.90;74.60
1155;DHT22;566;48.414;9.118;2022-11-27T10:15:18;10.00;69.50
1155;DHT22;566;48.414;9.118;2022-11-27T10:18:01;10.10;69.00
1155;DHT22;566;48.414;9.118;2022-11-27T10:20:36;10.00;70.10
1155;DHT22;566;48.414;9.118;2022-11-27T10:23:17;10.30;68.40
1155;DHT22;566;48.414;9.118;2022-11-27T10:25:49;10.90;67.10
1155;DHT22;566;48.414;9.118;2022-11-27T10:28:51;11.30;63.70
1155;DHT22;566;48.414;9.118;2022-11-27T10:31:37;11.20;62.60
1155;DHT22;566;48.414;9.118;2022-11-27T10:34:20;10.90;64.10
1155;DHT22;566;48.414;9.118;2022-11-27T10:36:49;10.70;66.30
1155;DHT22;566;48.414;9.118;2022-11-27T10:39:27;10.20;74.50
1155;DHT22;566;48.414;9.118;2022-11-27T10:42:11;9.30;77.20
1155;DHT22;566;48.414;9.118;2022-11-27T10:44:56;8.60;81.90
1155;DHT22;566;48.414;9.118;2022-11-27T10:47:24;7.90;85.10
1155;DHT22;566;48.414;9.118;2022-11-27T10:49:51;7.40;87.20
1155;DHT22;566;48.414;9.118;2022-11-27T10:52:18;7.00;88.70
1155;DHT22;566;48.414;9.118;2022-11-27T10:54:49;7.20;90.20
1155;DHT22;566;48.414;9.118;2022-11-27T11:00:19;9.10;86.60
1155;DHT22;566;48.414;9.118;2022-11-27T11:02:45;9.70;84.10
1155;DHT22;566;48.414;9.118;2022-11-27T11:10:35;11.10;69.50
1155;DHT22;566;48.414;9.118;2022-11-27T11:13:15;11.60;74.10
1155;DHT22;566;48.414;9.118;2022-11-27T11:18:32;11.00;79.80
1155;DHT22;566;48.414;9.118;2022-11-27T11:21:02;11.10;80.20
1155;DHT22;566;48.414;9.118;2022-11-27T11:23:31;11.60;79.70
1155;DHT22;566;48.414;9.118;2022-11-27T11:26:03;12.20;77.80
1155;DHT22;566;48.414;9.118;2022-11-27T11:28:32;12.00;76.50
1155;DHT22;566;48.414;9.118;2022-11-27T11:31:08;11.40;76.90
1155;DHT22;566;48.414;9.118;2022-11-27T11:33:48;10.80;77.10
1155;DHT22;566;48.414;9.118;2022-11-27T11:36:14;10.00;78.80
1155;DHT22;566;48.414;9.118;2022-11-27T11:38:43;9.60;80.60
1155;DHT22;566;48.414;9.118;2022-11-27T11:41:09;10.00;81.20
1155;DHT22;566;48.414;9.118;2022-11-27T11:43:37;10.60;79.30
1155;DHT22;566;48.414;9.118;2022-11-27T11:46:19;10.80;79.90
1155;DHT22;566;48.414;9.118;2022-11-27T11:57:30;10.60;79.00
1155;DHT22;566;48.414;9.118;2022-11-27T12:00:12;10.40;79.90
1155;DHT22;566;48.414;9.118;2022-11-27T12:08:41;10.30;81.00
1155;DHT22;566;48.414;9.118;2022-11-27T12:17:00;11.10;79.30
1155;DHT22;566;48.414;9.118;2022-11-27T12:19:43;10.60;77.60
1155;DHT22;566;48.414;9.118;2022-11-27T12:39:20;10.50;81.90
1155;DHT22;566;48.414;9.118;2022-11-27T12:45:10;11.00;80.50
1155;DHT22;566;48.414;9.118;2022-11-27T12:47:42;10.90;79.50
1155;DHT22;566;48.414;9.118;2022-11-27T12:53:05;9.90;80.90
1155;DHT22;566;48.414;9.118;2022-11-27T12:55:37;9.70;82.80
1155;DHT22;566;48.414;9.118;2022-11-27T12:58:36;9.40;83.40
1155;DHT22;566;48.414;9.118;2022-11-27T13:01:11;9.70;84.90
1155;DHT22;566;48.414;9.118;2022-11-27T13:04:03;9.90;83.00
1155;DHT22;566;48.414;9.118;2022-11-27T13:06:35;9.70;81.80
1155;DHT22;566;48.414;9.118;2022-11-27T13:09:09;9.60;83.70
1155;DHT22;566;48.414;9.118;2022-11-27T13:11:38;9.60;83.90
1155;DHT22;566;48.414;9.118;2022-11-27T13:14:10;9.30;84.60
1155;DHT22;566;48.414;9.118;2022-11-27T13:16:42;8.50;86.20
1155;DHT22;566;48.414;9.118;2022-11-27T13:19:50;7.90;88.60
1155;DHT22;566;48.414;9.118;2022-11-27T13:22:21;7.30;90.40
1155;DHT22;566;48.414;9.118;2022-11-27T13:24:54;7.10;91.50
1155;DHT22;566;48.414;9.118;2022-11-27T13:27:26;7.10;92.10
1155;DHT22;566;48.414;9.118;2022-11-27T13:30:20;7.00;92.00
1155;DHT22;566;48.414;9.118;2022-11-27T13:32:56;7.00;92.60
1155;DHT22;566;48.414;9.118;2022-11-27T13:35:39;7.00;93.00
1155;DHT22;566;48.414;9.118;2022-11-27T13:38:13;6.90;92.60
1155;DHT22;566;48.414;9.118;2022-11-27T13:40:45;6.80;92.50
1155;DHT22;566;48.414;9.118;2022-11-27T13:45:47;6.80;92.50
1155;DHT22;566;48.414;9.118;2022-11-27T13:48:38;6.80;92.20
1155;DHT22;566;48.414;9.118;2022-11-27T13:51:05;6.80;93.00
1155;DHT22;566;48.414;9.118;2022-11-27T13:53:38;6.90;93.40
1155;DHT22;566;48.414;9.118;2022-11-27T13:56:05;7.00;92.80
1155;DHT22;566;48.414;9.118;2022-11-27T13:58:37;7.10;92.60
1155;DHT22;566;48.414;9.118;2022-11-27T14:03:37;7.10;92.50
1155;DHT22;566;48.414;9.118;2022-11-27T14:06:22;7.10;93.40
1155;DHT22;566;48.414;9.118;2022-11-27T14:09:00;7.10;93.10
1155;DHT22;566;48.414;9.118;2022-11-27T14:11:31;7.10;92.90
1155;DHT22;566;48.414;9.118;2022-11-27T14:13:58;7.10;92.50
1155;DHT22;566;48.414;9.118;2022-11-27T14:16:33;7.10;93.10
1155;DHT22;566;48.414;9.118;2022-11-27T14:18:59;7.20;92.60
1155;DHT22;566;48.414;9.118;2022-11-27T14:24:00;7.10;91.40
1155;DHT22;566;48.414;9.118;2022-11-27T14:26:31;7.10;91.00
1155;DHT22;566;48.414;9.118;2022-11-27T14:28:58;7.00;91.20
1155;DHT22;566;48.414;9.118;2022-11-27T14:31:30;6.80;91.00
1155;DHT22;566;48.414;9.118;2022-11-27T14:33:56;6.70;91.70
1155;DHT22;566;48.414;9.118;2022-11-27T14:36:24;6.60;92.00
1155;DHT22;566;48.414;9.118;2022-11-27T14:38:50;6.40;92.20
1155;DHT22;566;48.414;9.118;2022-11-27T14:41:19;6.30;92.30
1155;DHT22;566;48.414;9.118;2022-11-27T14:43:45;6.20;92.30
1155;DHT22;566;48.414;9.118;2022-11-27T14:46:19;6.10;92.70
1155;DHT22;566;48.414;9.118;2022-11-27T14:48:51;6.00;92.70
1155;DHT22;566;48.414;9.118;2022-11-27T14:51:34;5.80;92.80
1155;DHT22;566;48.414;9.118;2022-11-27T14:54:12;5.60;92.90
1155;DHT22;566;48.414;9.118;2022-11-27T14:56:41;5.40;93.50
1155;DHT22;566;48.414;9.118;2022-11-27T14:59:18;5.30;94.00
1155;DHT22;566;48.414;9.118;2022-11-27T15:02:03;5.10;94.10
1155;DHT22;566;48.414;9.118;2022-11-27T15:04:41;5.00;94.30
1155;DHT22;566;48.414;9.118;2022-11-27T15:07:22;4.80;94.40
1155;DHT22;566;48.414;9.118;2022-11-27T15:09:52;4.70;95.00
1155;DHT22;566;48.414;9.118;2022-11-27T15:12:28;4.70;94.90
1155;DHT22;566;48.414;9.118;2022-11-27T15:15:16;4.60;95.30
1155;DHT22;566;48.414;9.118;2022-11-27T15:17:44;4.50;95.40
1155;DHT22;566;48.414;9.118;2022-11-27T15:25:46;4.10;96.70
1155;DHT22;566;48.414;9.118;2022-11-27T15:30:48;3.90;97.30
1155;DHT22;566;48.414;9.118;2022-11-27T15:33:30;3.80;97.60
1155;DHT22;566;48.414;9.118;2022-11-27T15:38:42;3.70;98.00
1155;DHT22;566;48.414;9.118;2022-11-27T15:41:24;3.70;98.00
1155;DHT22;566;48.414;9.118;2022-11-27T15:43:51;3.70;98.00
1155;DHT22;566;48.414;9.118;2022-11-27T15:46:30;3.60;98.00
1155;DHT22;566;48.414;9.118;2022-11-27T15:48:58;3.60;98.00
1155;DHT22;566;48.414;9.118;2022-11-27T15:51:24;3.60;98.00
1155;DHT22;566;48.414;9.118;2022-11-27T15:53:50;3.60;98.00
1155;DHT22;566;48.414;9.118;2022-11-27T15:56:15;3.50;98.00
1155;DHT22;566;48.414;9.118;2022-11-27T15:58:41;3.50;98.00
1155;DHT22;566;48.414;9.118;2022-11-27T16:01:08;3.40;98.00
1155;DHT22;566;48.414;9.118;2022-11-27T16:03:34;3.40;98.00
1155;DHT22;566;48.414;9.118;2022-11-27T16:06:07;3.40;98.00
1155;DHT22;566;48.414;9.118;2022-11-27T16:08:36;3.40;98.00
1155;DHT22;566;48.414;9.118;2022-11-27T16:11:03;3.30;98.00
1155;DHT22;566;48.414;9.118;2022-11-27T16:13:30;3.30;98.00
1155;DHT22;566;48.414;9.118;2022-11-27T16:16:06;3.30;98.00
1155;DHT22;566;48.414;9.118;2022-11-27T16:18:32;3.30;98.00
1155;DHT22;566;48.414;9.118;2022-11-27T16:21:09;3.30;98.00
1155;DHT22;566;48.414;9.118;2022-11-27T16:23:37;3.30;98.00
1155;DHT22;566;48.414;9.118;2022-11-27T16:26:04;3.30;98.00
1155;DHT22;566;48.414;9.118;2022-11-27T16:28:31;3.30;98.00
1155;DHT22;566;48.414;9.118;2022-11-27T16:30:58;3.30;98.00
1155;DHT22;566;48.414;9.118;2022-11-27T16:33:25;3.30;98.00
1155;DHT22;566;48.414;9.118;2022-11-27T16:35:51;3.30;98.00
1155;DHT22;566;48.414;9.118;2022-11-27T16:38:17;3.40;98.00
1155;DHT22;566;48.414;9.118;2022-11-27T16:40:43;3.40;98.00
1155;DHT22;566;48.414;9.118;2022-11-27T16:43:09;3.40;98.00
1155;DHT22;566;48.414;9.118;2022-11-27T16:45:35;3.40;98.00
1155;DHT22;566;48.414;9.118;2022-11-27T16:48:01;3.40;98.00
1155;DHT22;566;48.414;9.118;2022-11-27T16:50:27;3.40;98.00
1155;DHT22;566;48.414;9.118;2022-11-27T16:52:54;3.40;98.00
1155;DHT22;566;48.414;9.118;2022-11-27T16:55:21;3.50;98.00
1155;DHT22;566;48.414;9.118;2022-11-27T16:57:46;3.50;98.00
1155;DHT22;566;48.414;9.118;2022-11-27T17:00:15;3.50;98.00
1155;DHT22;566;48.414;9.118;2022-11-27T17:02:41;3.50;98.00
1155;DHT22;566;48.414;9.118;2022-11-27T17:05:09;3.50;98.00
1155;DHT22;566;48.414;9.118;2022-11-27T17:07:35;3.60;97.90
1155;DHT22;566;48.414;9.118;2022-11-27T17:10:00;3.60;98.00
1155;DHT22;566;48.414;9.118;2022-11-27T17:12:26;3.60;98.00
1155;DHT22;566;48.414;9.118;2022-11-27T17:14:52;3.50;98.00
1155;DHT22;566;48.414;9.118;2022-11-27T17:17:18;3.50;98.00
1155;DHT22;566;48.414;9.118;2022-11-27T17:19:43;3.50;98.00
1155;DHT22;566;48.414;9.118;2022-11-27T17:22:09;3.50;98.00
1155;DHT22;566;48.414;9.118;2022-11-27T17:24:34;3.50;98.00
1155;DHT22;566;48.414;9.118;2022-11-27T17:27:01;3.40;98.00
1155;DHT22;566;48.414;9.118;2022-11-27T17:29:27;3.40;98.00
1155;DHT22;566;48.414;9.118;2022-11-27T17:31:53;3.40;98.00
1155;DHT22;566;48.414;9.118;2022-11-27T17:34:19;3.50;98.00
1155;DHT22;566;48.414;9.118;2022-11-27T17:36:45;3.50;98.00
1155;DHT22;566;48.414;9.118;2022-11-27T17:39:13;3.60;97.80
1155;DHT22;566;48.414;9.118;2022-11-27T17:41:39;3.60;98.00
1155;DHT22;566;48.414;9.118;2022-11-27T17:44:06;3.60;98.00
1155;DHT22;566;48.414;9.118;2022-11-27T17:46:32;3.60;98.00
1155;DHT22;566;48.414;9.118;2022-11-27T17:49:01;3.60;98.00
1155;DHT22;566;48.414;9.118;2022-11-27T17:51:29;3.50;98.00
1155;DHT22;566;48.414;9.118;2022-11-27T17:53:57;3.50;98.00
1155;DHT22;566;48.414;9.118;2022-11-27T17:56:25;3.40;98.00
1155;DHT22;566;48.414;9.118;2022-11-27T17:58:51;3.40;98.00
1155;DHT22;566;48.414;9.118;2022-11-27T18:01:20;3.40;98.00
1155;DHT22;566;48.414;9.118;2022-11-27T18:03:46;3.40;98.00
1155;DHT22;566;48.414;9.118;2022-11-27T18:06:13;3.40;98.00
1155;DHT22;566;48.414;9.118;2022-11-27T18:08:39;3.40;98.00
1155;DHT22;566;48.414;9.118;2022-11-27T18:11:07;3.40;98.00
1155;DHT22;566;48.414;9.118;2022-11-27T18:13:33;3.40;98.00
1155;DHT22;566;48.414;9.118;2022-11-27T18:16:07;3.40;98.00
1155;DHT22;566;48.414;9.118;2022-11-27T18:18:34;3.50;98.00
1155;DHT22;566;48.414;9.118;2022-11-27T18:21:11;3.50;98.00
1155;DHT22;566;48.414;9.118;2022-11-27T18:23:37;3.60;98.00
1155;DHT22;566;48.414;9.118;2022-11-27T18:26:09;3.70;97.50
1155;DHT22;566;48.414;9.118;2022-11-27T18:28:36;3.70;97.50
1155;DHT22;566;48.414;9.118;2022-11-27T18:31:16;3.80;97.10
1155;DHT22;566;48.414;9.118;2022-11-27T18:33:42;3.90;96.40
1155;DHT22;566;48.414;9.118;2022-11-27T18:36:10;4.10;95.10
1155;DHT22;566;48.414;9.118;2022-11-27T18:38:37;4.20;93.20
1155;DHT22;566;48.414;9.118;2022-11-27T18:41:20;4.40;93.70
1155;DHT22;566;48.414;9.118;2022-11-27T18:43:48;4.30;95.30
1155;DHT22;566;48.414;9.118;2022-11-27T18:46:15;4.20;96.10